sensor_id;sensor_type;location;lat;lon;timestamp;temperature;humidity
40960;DHT22;27842;52.272;8.052;2022-09-02T00:03:45;19.40;57.10
40960;DHT22;27842;52.272;8.052;2022-09-02T00:06:11;19.40;57.30
40960;DHT22;27842;52.272;8.052;2022-09-02T00:08:37;19.40;57.20
40960;DHT22;27842;52.272;8.052;2022-09-02T00:11:04;19.40;57.20
40960;DHT22;27842;52.272;8.052;2022-09-02T00:13:32;19.40;57.20
40960;DHT22;27842;52.272;8.052;2022-09-02T00:15:58;19.40;57.20
40960;DHT22;27842;52.272;8.052;2022-09-02T00:18:24;19.50;57.20
40960;DHT22;27842;52.272;8.052;2022-09-02T00:20:50;19.50;57.20
40960;DHT22;27842;52.272;8.052;2022-09-02T00:23:16;19.40;57.30
40960;DHT22;27842;52.272;8.052;2022-09-02T00:25:43;19.40;58.00
40960;DHT22;27842;52.272;8.052;2022-09-02T00:28:10;19.40;57.40
40960;DHT22;27842;52.272;8.052;2022-09-02T00:30:36;19.30;57.50
40960;DHT22;27842;52.272;8.052;2022-09-02T00:33:02;19.30;57.60
40960;DHT22;27842;52.272;8.052;2022-09-02T00:35:28;19.30;57.60
40960;DHT22;27842;52.272;8.052;2022-09-02T00:37:53;19.20;57.70
40960;DHT22;27842;52.272;8.052;2022-09-02T00:40:19;19.20;57.80
40960;DHT22;27842;52.272;8.052;2022-09-02T00:42:45;19.20;57.90
40960;DHT22;27842;52.272;8.052;2022-09-02T00:45:11;19.10;57.90
40960;DHT22;27842;52.272;8.052;2022-09-02T00:47:37;19.10;58.10
40960;DHT22;27842;52.272;8.052;2022-09-02T00:50:07;19.10;58.10
40960;DHT22;27842;52.272;8.052;2022-09-02T00:52:38;19.10;58.10
40960;DHT22;27842;52.272;8.052;2022-09-02T00:55:10;19.10;58.40
40960;DHT22;27842;52.272;8.052;2022-09-02T00:57:39;19.00;58.20
40960;DHT22;27842;52.272;8.052;2022-09-02T01:00:10;19.00;58.30
40960;DHT22;27842;52.272;8.052;2022-09-02T01:02:39;19.00;58.30
40960;DHT22;27842;52.272;8.052;2022-09-02T01:05:08;19.00;58.40
40960;DHT22;27842;52.272;8.052;2022-09-02T01:07:35;18.90;58.50
40960;DHT22;27842;52.272;8.052;2022-09-02T01:10:05;18.90;58.60
40960;DHT22;27842;52.272;8.052;2022-09-02T01:12:32;18.90;58.70
40960;DHT22;27842;52.272;8.052;2022-09-02T01:14:57;18.90;58.80
40960;DHT22;27842;52.272;8.052;2022-09-02T01:17:23;18.80;58.80
40960;DHT22;27842;52.272;8.052;2022-09-02T01:19:56;18.70;58.80
40960;DHT22;27842;52.272;8.052;2022-09-02T01:22:27;18.70;59.00
40960;DHT22;27842;52.272;8.052;2022-09-02T01:24:56;18.70;59.10
40960;DHT22;27842;52.272;8.052;2022-09-02T01:27:23;18.70;59.20
40960;DHT22;27842;52.272;8.052;2022-09-02T01:29:57;18.60;59.30
40960;DHT22;27842;52.272;8.052;2022-09-02T01:32:24;18.50;59.40
40960;DHT22;27842;52.272;8.052;2022-09-02T01:34:50;18.50;59.70
40960;DHT22;27842;52.272;8.052;2022-09-02T01:37:16;18.50;59.70
40960;DHT22;27842;52.272;8.052;2022-09-02T01:39:41;18.50;59.70
40960;DHT22;27842;52.272;8.052;2022-09-02T01:42:08;18.50;59.60
40960;DHT22;27842;52.272;8.052;2022-09-02T01:44:37;18.50;59.80
40960;DHT22;27842;52.272;8.052;2022-09-02T01:47:09;18.50;59.80
40960;DHT22;27842;52.272;8.052;2022-09-02T01:49:35;18.40;59.80
40960;DHT22;27842;52.272;8.052;2022-09-02T01:52:01;18.40;60.00
40960;DHT22;27842;52.272;8.052;2022-09-02T01:54:27;18.30;60.00
40960;DHT22;27842;52.272;8.052;2022-09-02T01:56:52;18.30;60.10
40960;DHT22;27842;52.272;8.052;2022-09-02T01:59:18;18.30;60.20
40960;DHT22;27842;52.272;8.052;2022-09-02T02:01:45;18.20;60.20
40960;DHT22;27842;52.272;8.052;2022-09-02T02:04:12;18.20;60.30
40960;DHT22;27842;52.272;8.052;2022-09-02T02:06:42;18.10;60.50
40960;DHT22;27842;52.272;8.052;2022-09-02T02:09:09;18.10;60.70
40960;DHT22;27842;52.272;8.052;2022-09-02T02:11:34;18.00;60.80
40960;DHT22;27842;52.272;8.052;2022-09-02T02:14:00;18.00;60.90
40960;DHT22;27842;52.272;8.052;2022-09-02T02:16:25;18.00;61.00
40960;DHT22;27842;52.272;8.052;2022-09-02T02:18:51;18.00;61.00
40960;DHT22;27842;52.272;8.052;2022-09-02T02:21:17;17.90;61.10
40960;DHT22;27842;52.272;8.052;2022-09-02T02:23:42;17.90;61.30
40960;DHT22;27842;52.272;8.052;2022-09-02T02:26:08;17.90;61.30
40960;DHT22;27842;52.272;8.052;2022-09-02T02:28:34;17.90;61.30
40960;DHT22;27842;52.272;8.052;2022-09-02T02:31:00;17.90;61.40
40960;DHT22;27842;52.272;8.052;2022-09-02T02:33:26;17.80;61.40
40960;DHT22;27842;52.272;8.052;2022-09-02T02:35:54;17.70;61.60
40960;DHT22;27842;52.272;8.052;2022-09-02T02:38:20;17.70;61.70
40960;DHT22;27842;52.272;8.052;2022-09-02T02:40:45;17.70;61.80
40960;DHT22;27842;52.272;8.052;2022-09-02T02:43:11;17.70;61.80
40960;DHT22;27842;52.272;8.052;2022-09-02T02:45:37;17.70;61.90
40960;DHT22;27842;52.272;8.052;2022-09-02T02:48:04;17.60;61.90
40960;DHT22;27842;52.272;8.052;2022-09-02T02:50:30;17.60;62.00
40960;DHT22;27842;52.272;8.052;2022-09-02T02:52:56;17.60;62.10
40960;DHT22;27842;52.272;8.052;2022-09-02T02:55:23;17.60;62.10
40960;DHT22;27842;52.272;8.052;2022-09-02T02:57:49;17.60;62.20
40960;DHT22;27842;52.272;8.052;2022-09-02T03:00:21;17.60;62.20
40960;DHT22;27842;52.272;8.052;2022-09-02T03:02:47;17.50;62.30
40960;DHT22;27842;52.272;8.052;2022-09-02T03:05:16;17.50;62.30
40960;DHT22;27842;52.272;8.052;2022-09-02T03:07:42;17.50;62.40
40960;DHT22;27842;52.272;8.052;2022-09-02T03:10:09;17.50;62.30
40960;DHT22;27842;52.272;8.052;2022-09-02T03:12:36;17.50;62.40
40960;DHT22;27842;52.272;8.052;2022-09-02T03:15:04;17.50;62.70
40960;DHT22;27842;52.272;8.052;2022-09-02T03:17:30;17.40;62.50
40960;DHT22;27842;52.272;8.052;2022-09-02T03:19:56;17.40;62.60
40960;DHT22;27842;52.272;8.052;2022-09-02T03:22:24;17.40;62.70
40960;DHT22;27842;52.272;8.052;2022-09-02T03:24:50;17.30;62.80
40960;DHT22;27842;52.272;8.052;2022-09-02T03:27:15;17.30;63.00
40960;DHT22;27842;52.272;8.052;2022-09-02T03:29:41;17.20;63.00
40960;DHT22;27842;52.272;8.052;2022-09-02T03:32:06;17.20;63.10
40960;DHT22;27842;52.272;8.052;2022-09-02T03:34:32;17.20;63.10
40960;DHT22;27842;52.272;8.052;2022-09-02T03:36:58;17.20;63.20
40960;DHT22;27842;52.272;8.052;2022-09-02T03:39:23;17.30;63.20
40960;DHT22;27842;52.272;8.052;2022-09-02T03:41:49;17.20;63.20
40960;DHT22;27842;52.272;8.052;2022-09-02T03:44:15;17.20;63.30
40960;DHT22;27842;52.272;8.052;2022-09-02T03:46:41;17.20;63.30
40960;DHT22;27842;52.272;8.052;2022-09-02T03:49:07;17.20;63.30
40960;DHT22;27842;52.272;8.052;2022-09-02T03:51:32;17.20;63.30
40960;DHT22;27842;52.272;8.052;2022-09-02T03:53:58;17.20;63.40
40960;DHT22;27842;52.272;8.052;2022-09-02T03:56:24;17.10;63.50
40960;DHT22;27842;52.272;8.052;2022-09-02T03:58:51;17.10;63.70
40960;DHT22;27842;52.272;8.052;2022-09-02T04:01:20;17.00;63.70
40960;DHT22;27842;52.272;8.052;2022-09-02T04:03:47;17.00;63.90
40960;DHT22;27842;52.272;8.052;2022-09-02T04:06:14;17.00;63.90
40960;DHT22;27842;52.272;8.052;2022-09-02T04:08:41;17.00;64.00
40960;DHT22;27842;52.272;8.052;2022-09-02T04:11:09;17.00;64.00
40960;DHT22;27842;52.272;8.052;2022-09-02T04:13:35;17.00;64.00
40960;DHT22;27842;52.272;8.052;2022-09-02T04:16:10;17.00;64.10
40960;DHT22;27842;52.272;8.052;2022-09-02T04:18:37;17.00;64.20
40960;DHT22;27842;52.272;8.052;2022-09-02T04:21:03;17.00;64.20
40960;DHT22;27842;52.272;8.052;2022-09-02T04:23:29;16.90;64.10
40960;DHT22;27842;52.272;8.052;2022-09-02T04:25:55;16.90;64.30
40960;DHT22;27842;52.272;8.052;2022-09-02T04:28:21;16.90;64.30
40960;DHT22;27842;52.272;8.052;2022-09-02T04:30:46;16.90;64.50
40960;DHT22;27842;52.272;8.052;2022-09-02T04:33:12;16.90;64.50
40960;DHT22;27842;52.272;8.052;2022-09-02T04:35:42;16.80;64.50
40960;DHT22;27842;52.272;8.052;2022-09-02T04:38:09;16.80;64.60
40960;DHT22;27842;52.272;8.052;2022-09-02T04:40:34;16.80;64.80
40960;DHT22;27842;52.272;8.052;2022-09-02T04:43:00;16.80;64.90
40960;DHT22;27842;52.272;8.052;2022-09-02T04:45:26;16.70;65.00
40960;DHT22;27842;52.272;8.052;2022-09-02T04:47:51;16.70;65.10
40960;DHT22;27842;52.272;8.052;2022-09-02T04:50:17;16.70;65.10
40960;DHT22;27842;52.272;8.052;2022-09-02T04:52:42;16.70;65.20
40960;DHT22;27842;52.272;8.052;2022-09-02T04:55:08;16.60;65.30
40960;DHT22;27842;52.272;8.052;2022-09-02T04:57:34;16.60;65.40
40960;DHT22;27842;52.272;8.052;2022-09-02T05:00:03;16.60;65.30
40960;DHT22;27842;52.272;8.052;2022-09-02T05:02:29;16.60;65.50
40960;DHT22;27842;52.272;8.052;2022-09-02T05:04:54;16.60;65.40
40960;DHT22;27842;52.272;8.052;2022-09-02T05:07:20;16.60;65.50
40960;DHT22;27842;52.272;8.052;2022-09-02T05:09:46;16.60;65.50
40960;DHT22;27842;52.272;8.052;2022-09-02T05:12:11;16.60;65.70
40960;DHT22;27842;52.272;8.052;2022-09-02T05:14:37;16.60;65.60
40960;DHT22;27842;52.272;8.052;2022-09-02T05:17:03;16.50;65.70
40960;DHT22;27842;52.272;8.052;2022-09-02T05:19:29;16.50;65.80
40960;DHT22;27842;52.272;8.052;2022-09-02T05:21:55;16.40;65.90
40960;DHT22;27842;52.272;8.052;2022-09-02T05:24:24;16.40;66.10
40960;DHT22;27842;52.272;8.052;2022-09-02T05:26:50;16.40;66.20
40960;DHT22;27842;52.272;8.052;2022-09-02T05:29:16;16.40;66.10
40960;DHT22;27842;52.272;8.052;2022-09-02T05:31:45;16.40;66.30
40960;DHT22;27842;52.272;8.052;2022-09-02T05:34:11;16.40;66.20
40960;DHT22;27842;52.272;8.052;2022-09-02T05:36:36;16.40;66.30
40960;DHT22;27842;52.272;8.052;2022-09-02T05:39:03;16.40;66.30
40960;DHT22;27842;52.272;8.052;2022-09-02T05:41:29;16.40;66.40
40960;DHT22;27842;52.272;8.052;2022-09-02T05:43:58;16.30;67.20
40960;DHT22;27842;52.272;8.052;2022-09-02T05:46:25;16.30;66.60
40960;DHT22;27842;52.272;8.052;2022-09-02T05:48:52;16.40;66.70
40960;DHT22;27842;52.272;8.052;2022-09-02T05:51:46;16.40;66.60
40960;DHT22;27842;52.272;8.052;2022-09-02T05:54:27;16.40;66.60
40960;DHT22;27842;52.272;8.052;2022-09-02T05:56:55;16.40;66.90
40960;DHT22;27842;52.272;8.052;2022-09-02T05:59:23;16.40;66.80
40960;DHT22;27842;52.272;8.052;2022-09-02T06:01:50;16.40;67.00
40960;DHT22;27842;52.272;8.052;2022-09-02T06:04:16;16.40;66.80
40960;DHT22;27842;52.272;8.052;2022-09-02T06:06:42;16.40;66.80
40960;DHT22;27842;52.272;8.052;2022-09-02T06:09:10;16.50;66.90
40960;DHT22;27842;52.272;8.052;2022-09-02T06:11:37;16.50;67.00
40960;DHT22;27842;52.272;8.052;2022-09-02T06:14:05;16.50;66.80
40960;DHT22;27842;52.272;8.052;2022-09-02T06:16:32;16.50;66.90
40960;DHT22;27842;52.272;8.052;2022-09-02T06:18:58;16.60;67.00
40960;DHT22;27842;52.272;8.052;2022-09-02T06:21:24;16.60;67.00
40960;DHT22;27842;52.272;8.052;2022-09-02T06:23:49;16.60;67.40
40960;DHT22;27842;52.272;8.052;2022-09-02T06:26:16;16.60;67.20
40960;DHT22;27842;52.272;8.052;2022-09-02T06:28:42;16.70;67.20
40960;DHT22;27842;52.272;8.052;2022-09-02T06:31:27;16.70;67.20
40960;DHT22;27842;52.272;8.052;2022-09-02T06:33:55;16.70;67.30
40960;DHT22;27842;52.272;8.052;2022-09-02T06:36:22;16.70;67.20
40960;DHT22;27842;52.272;8.052;2022-09-02T06:38:51;16.70;67.40
40960;DHT22;27842;52.272;8.052;2022-09-02T06:41:22;16.80;67.20
40960;DHT22;27842;52.272;8.052;2022-09-02T06:43:49;16.80;67.20
40960;DHT22;27842;52.272;8.052;2022-09-02T06:46:20;16.90;67.30
40960;DHT22;27842;52.272;8.052;2022-09-02T06:48:46;16.90;67.30
40960;DHT22;27842;52.272;8.052;2022-09-02T06:51:27;16.90;67.30
40960;DHT22;27842;52.272;8.052;2022-09-02T06:53:53;17.00;67.30
40960;DHT22;27842;52.272;8.052;2022-09-02T06:56:18;17.10;67.30
40960;DHT22;27842;52.272;8.052;2022-09-02T06:58:44;17.10;67.40
40960;DHT22;27842;52.272;8.052;2022-09-02T07:01:20;17.10;67.30
40960;DHT22;27842;52.272;8.052;2022-09-02T07:03:46;17.20;67.20
40960;DHT22;27842;52.272;8.052;2022-09-02T07:06:40;17.40;67.10
40960;DHT22;27842;52.272;8.052;2022-09-02T07:09:08;17.50;66.80
40960;DHT22;27842;52.272;8.052;2022-09-02T07:11:35;17.70;66.90
40960;DHT22;27842;52.272;8.052;2022-09-02T07:14:01;17.70;66.60
40960;DHT22;27842;52.272;8.052;2022-09-02T07:16:29;17.90;66.40
40960;DHT22;27842;52.272;8.052;2022-09-02T07:18:56;17.90;66.10
40960;DHT22;27842;52.272;8.052;2022-09-02T07:21:22;18.10;66.00
40960;DHT22;27842;52.272;8.052;2022-09-02T07:23:48;18.20;65.90
40960;DHT22;27842;52.272;8.052;2022-09-02T07:26:15;18.30;65.80
40960;DHT22;27842;52.272;8.052;2022-09-02T07:28:41;18.30;65.60
40960;DHT22;27842;52.272;8.052;2022-09-02T07:31:11;18.40;65.50
40960;DHT22;27842;52.272;8.052;2022-09-02T07:33:38;18.50;65.30
40960;DHT22;27842;52.272;8.052;2022-09-02T07:36:04;18.60;65.10
40960;DHT22;27842;52.272;8.052;2022-09-02T07:38:31;18.70;65.00
40960;DHT22;27842;52.272;8.052;2022-09-02T07:40:56;18.70;64.90
40960;DHT22;27842;52.272;8.052;2022-09-02T07:43:25;18.80;64.80
40960;DHT22;27842;52.272;8.052;2022-09-02T07:45:51;18.90;64.70
40960;DHT22;27842;52.272;8.052;2022-09-02T07:48:18;18.90;64.80
40960;DHT22;27842;52.272;8.052;2022-09-02T07:50:43;19.00;64.50
40960;DHT22;27842;52.272;8.052;2022-09-02T07:53:09;19.00;64.60
40960;DHT22;27842;52.272;8.052;2022-09-02T07:55:38;19.10;64.60
40960;DHT22;27842;52.272;8.052;2022-09-02T07:58:05;19.10;64.40
40960;DHT22;27842;52.272;8.052;2022-09-02T08:00:31;19.20;64.50
40960;DHT22;27842;52.272;8.052;2022-09-02T08:02:56;19.30;64.40
40960;DHT22;27842;52.272;8.052;2022-09-02T08:05:22;19.30;64.30
40960;DHT22;27842;52.272;8.052;2022-09-02T08:07:48;19.40;64.20
40960;DHT22;27842;52.272;8.052;2022-09-02T08:10:14;19.50;64.10
40960;DHT22;27842;52.272;8.052;2022-09-02T08:12:42;19.50;64.30
40960;DHT22;27842;52.272;8.052;2022-09-02T08:15:09;19.60;64.00
40960;DHT22;27842;52.272;8.052;2022-09-02T08:17:36;19.60;64.00
40960;DHT22;27842;52.272;8.052;2022-09-02T08:20:07;19.70;63.90
40960;DHT22;27842;52.272;8.052;2022-09-02T08:22:34;19.80;63.80
40960;DHT22;27842;52.272;8.052;2022-09-02T08:25:00;19.80;63.70
40960;DHT22;27842;52.272;8.052;2022-09-02T08:27:25;19.90;63.70
40960;DHT22;27842;52.272;8.052;2022-09-02T08:29:52;20.00;63.60
40960;DHT22;27842;52.272;8.052;2022-09-02T08:32:17;20.00;63.60
40960;DHT22;27842;52.272;8.052;2022-09-02T08:34:43;20.10;63.50
40960;DHT22;27842;52.272;8.052;2022-09-02T08:37:09;20.20;63.40
40960;DHT22;27842;52.272;8.052;2022-09-02T08:39:34;20.30;63.20
40960;DHT22;27842;52.272;8.052;2022-09-02T08:42:22;20.30;63.10
40960;DHT22;27842;52.272;8.052;2022-09-02T08:44:50;20.40;63.00
40960;DHT22;27842;52.272;8.052;2022-09-02T08:47:25;20.40;62.80
40960;DHT22;27842;52.272;8.052;2022-09-02T08:49:58;20.50;62.80
40960;DHT22;27842;52.272;8.052;2022-09-02T08:52:32;20.50;62.70
40960;DHT22;27842;52.272;8.052;2022-09-02T08:54:59;20.60;62.60
40960;DHT22;27842;52.272;8.052;2022-09-02T08:57:25;20.70;62.40
40960;DHT22;27842;52.272;8.052;2022-09-02T08:59:55;20.80;62.10
40960;DHT22;27842;52.272;8.052;2022-09-02T09:05:39;20.90;61.60
40960;DHT22;27842;52.272;8.052;2022-09-02T09:08:22;21.00;61.90
40960;DHT22;27842;52.272;8.052;2022-09-02T09:16:24;21.30;61.50
40960;DHT22;27842;52.272;8.052;2022-09-02T09:19:15;21.40;61.30
40960;DHT22;27842;52.272;8.052;2022-09-02T09:21:46;21.50;61.20
40960;DHT22;27842;52.272;8.052;2022-09-02T09:26:49;21.60;60.30
40960;DHT22;27842;52.272;8.052;2022-09-02T09:29:17;21.70;60.70
40960;DHT22;27842;52.272;8.052;2022-09-02T09:31:43;21.70;60.50
40960;DHT22;27842;52.272;8.052;2022-09-02T09:34:11;21.80;60.50
40960;DHT22;27842;52.272;8.052;2022-09-02T09:36:51;21.80;60.30
40960;DHT22;27842;52.272;8.052;2022-09-02T09:39:27;21.90;60.10
40960;DHT22;27842;52.272;8.052;2022-09-02T09:41:57;22.00;60.10
40960;DHT22;27842;52.272;8.052;2022-09-02T09:44:46;22.10;59.80
40960;DHT22;27842;52.272;8.052;2022-09-02T09:47:25;22.20;59.30
40960;DHT22;27842;52.272;8.052;2022-09-02T09:49:53;22.30;58.80
40960;DHT22;27842;52.272;8.052;2022-09-02T09:52:27;22.30;59.30
40960;DHT22;27842;52.272;8.052;2022-09-02T09:55:13;22.40;58.80
40960;DHT22;27842;52.272;8.052;2022-09-02T09:57:42;22.50;59.10
40960;DHT22;27842;52.272;8.052;2022-09-02T10:02:50;22.60;59.00
40960;DHT22;27842;52.272;8.052;2022-09-02T10:05:38;22.70;58.80
40960;DHT22;27842;52.272;8.052;2022-09-02T10:08:18;22.80;58.60
40960;DHT22;27842;52.272;8.052;2022-09-02T10:10:59;22.80;58.20
40960;DHT22;27842;52.272;8.052;2022-09-02T10:13:36;22.80;57.90
40960;DHT22;27842;52.272;8.052;2022-09-02T10:22:33;22.90;58.00
40960;DHT22;27842;52.272;8.052;2022-09-02T10:28:00;23.00;57.50
40960;DHT22;27842;52.272;8.052;2022-09-02T10:30:32;23.00;57.50
40960;DHT22;27842;52.272;8.052;2022-09-02T10:36:12;23.10;57.20
40960;DHT22;27842;52.272;8.052;2022-09-02T10:38:48;23.10;57.30
40960;DHT22;27842;52.272;8.052;2022-09-02T10:44:23;23.10;57.40
40960;DHT22;27842;52.272;8.052;2022-09-02T10:46:59;23.10;57.20
40960;DHT22;27842;52.272;8.052;2022-09-02T10:52:13;23.20;57.00
40960;DHT22;27842;52.272;8.052;2022-09-02T10:54:48;23.30;56.00
40960;DHT22;27842;52.272;8.052;2022-09-02T10:57:20;23.20;56.80
40960;DHT22;27842;52.272;8.052;2022-09-02T10:59:51;23.30;56.50
40960;DHT22;27842;52.272;8.052;2022-09-02T11:02:29;23.30;57.30
40960;DHT22;27842;52.272;8.052;2022-09-02T11:05:02;23.30;56.40
40960;DHT22;27842;52.272;8.052;2022-09-02T11:07:39;23.30;56.40
40960;DHT22;27842;52.272;8.052;2022-09-02T11:10:28;23.30;56.50
40960;DHT22;27842;52.272;8.052;2022-09-02T11:15:46;23.40;56.20
40960;DHT22;27842;52.272;8.052;2022-09-02T11:21:08;23.50;56.00
40960;DHT22;27842;52.272;8.052;2022-09-02T11:23:55;23.50;55.90
40960;DHT22;27842;52.272;8.052;2022-09-02T11:26:37;23.50;56.10
40960;DHT22;27842;52.272;8.052;2022-09-02T11:37:07;23.70;55.50
40960;DHT22;27842;52.272;8.052;2022-09-02T11:39:44;23.70;55.60
40960;DHT22;27842;52.272;8.052;2022-09-02T11:42:18;23.70;55.20
40960;DHT22;27842;52.272;8.052;2022-09-02T11:45:03;23.80;55.50
40960;DHT22;27842;52.272;8.052;2022-09-02T11:53:31;24.10;55.10
40960;DHT22;27842;52.272;8.052;2022-09-02T11:56:04;24.20;53.80
40960;DHT22;27842;52.272;8.052;2022-09-02T11:58:45;24.30;54.20
40960;DHT22;27842;52.272;8.052;2022-09-02T12:04:17;24.60;54.10
40960;DHT22;27842;52.272;8.052;2022-09-02T12:09:47;25.00;53.50
40960;DHT22;27842;52.272;8.052;2022-09-02T12:15:12;25.40;52.70
40960;DHT22;27842;52.272;8.052;2022-09-02T12:20:07;25.60;53.00
40960;DHT22;27842;52.272;8.052;2022-09-02T12:22:35;25.70;52.60
40960;DHT22;27842;52.272;8.052;2022-09-02T12:28:07;25.90;49.10
40960;DHT22;27842;52.272;8.052;2022-09-02T12:33:35;26.50;49.20
40960;DHT22;27842;52.272;8.052;2022-09-02T12:36:03;26.70;51.90
40960;DHT22;27842;52.272;8.052;2022-09-02T12:38:39;26.90;51.30
40960;DHT22;27842;52.272;8.052;2022-09-02T12:49:35;26.60;49.10
40960;DHT22;27842;52.272;8.052;2022-09-02T12:52:08;26.30;51.00
40960;DHT22;27842;52.272;8.052;2022-09-02T12:54:44;26.20;51.20
40960;DHT22;27842;52.272;8.052;2022-09-02T12:57:12;26.10;50.60
40960;DHT22;27842;52.272;8.052;2022-09-02T12:59:40;26.10;50.80
40960;DHT22;27842;52.272;8.052;2022-09-02T13:11:34;25.40;50.30
40960;DHT22;27842;52.272;8.052;2022-09-02T13:14:18;25.40;49.30
40960;DHT22;27842;52.272;8.052;2022-09-02T13:17:12;25.50;51.00
40960;DHT22;27842;52.272;8.052;2022-09-02T13:25:44;26.00;49.80
40960;DHT22;27842;52.272;8.052;2022-09-02T13:31:12;26.20;48.90
40960;DHT22;27842;52.272;8.052;2022-09-02T13:33:42;26.40;48.20
40960;DHT22;27842;52.272;8.052;2022-09-02T13:36:08;26.50;48.50
40960;DHT22;27842;52.272;8.052;2022-09-02T13:38:34;26.50;48.60
40960;DHT22;27842;52.272;8.052;2022-09-02T13:41:00;26.60;48.30
40960;DHT22;27842;52.272;8.052;2022-09-02T13:43:27;26.50;47.80
40960;DHT22;27842;52.272;8.052;2022-09-02T13:45:58;26.50;48.20
40960;DHT22;27842;52.272;8.052;2022-09-02T13:48:24;26.40;48.00
40960;DHT22;27842;52.272;8.052;2022-09-02T13:50:55;26.40;48.20
40960;DHT22;27842;52.272;8.052;2022-09-02T13:53:37;26.30;48.10
40960;DHT22;27842;52.272;8.052;2022-09-02T13:56:06;26.30;48.40
40960;DHT22;27842;52.272;8.052;2022-09-02T13:58:52;26.30;48.50
40960;DHT22;27842;52.272;8.052;2022-09-02T14:03:55;26.50;47.80
40960;DHT22;27842;52.272;8.052;2022-09-02T14:06:29;26.70;47.70
40960;DHT22;27842;52.272;8.052;2022-09-02T14:08:57;26.90;47.00
40960;DHT22;27842;52.272;8.052;2022-09-02T14:11:25;27.00;46.90
40960;DHT22;27842;52.272;8.052;2022-09-02T14:13:52;27.00;46.70
40960;DHT22;27842;52.272;8.052;2022-09-02T14:16:35;27.00;46.50
40960;DHT22;27842;52.272;8.052;2022-09-02T14:19:23;27.10;46.10
40960;DHT22;27842;52.272;8.052;2022-09-02T14:21:50;27.10;45.70
40960;DHT22;27842;52.272;8.052;2022-09-02T14:24:36;27.20;46.50
40960;DHT22;27842;52.272;8.052;2022-09-02T14:27:02;27.40;46.40
40960;DHT22;27842;52.272;8.052;2022-09-02T14:29:29;27.40;46.40
40960;DHT22;27842;52.272;8.052;2022-09-02T14:34:33;27.70;46.00
40960;DHT22;27842;52.272;8.052;2022-09-02T14:36:59;27.80;45.50
40960;DHT22;27842;52.272;8.052;2022-09-02T14:39:24;27.80;45.60
40960;DHT22;27842;52.272;8.052;2022-09-02T14:41:52;27.70;45.90
40960;DHT22;27842;52.272;8.052;2022-09-02T14:44:28;27.60;45.70
40960;DHT22;27842;52.272;8.052;2022-09-02T14:47:00;27.70;45.50
40960;DHT22;27842;52.272;8.052;2022-09-02T14:49:29;27.60;44.50
40960;DHT22;27842;52.272;8.052;2022-09-02T14:51:58;27.40;45.70
40960;DHT22;27842;52.272;8.052;2022-09-02T14:54:39;27.30;45.70
40960;DHT22;27842;52.272;8.052;2022-09-02T14:57:24;27.10;45.80
40960;DHT22;27842;52.272;8.052;2022-09-02T14:59:55;27.00;46.00
40960;DHT22;27842;52.272;8.052;2022-09-02T15:04:54;26.90;46.50
40960;DHT22;27842;52.272;8.052;2022-09-02T15:07:21;26.80;46.00
40960;DHT22;27842;52.272;8.052;2022-09-02T15:09:47;26.80;46.30
40960;DHT22;27842;52.272;8.052;2022-09-02T15:12:20;26.70;46.00
40960;DHT22;27842;52.272;8.052;2022-09-02T15:14:52;26.60;46.20
40960;DHT22;27842;52.272;8.052;2022-09-02T15:17:18;26.50;46.20
40960;DHT22;27842;52.272;8.052;2022-09-02T15:19:44;26.40;46.20
40960;DHT22;27842;52.272;8.052;2022-09-02T15:22:10;26.20;46.00
40960;DHT22;27842;52.272;8.052;2022-09-02T15:24:36;26.10;45.70
40960;DHT22;27842;52.272;8.052;2022-09-02T15:27:01;26.00;46.10
40960;DHT22;27842;52.272;8.052;2022-09-02T15:29:27;25.80;45.90
40960;DHT22;27842;52.272;8.052;2022-09-02T15:31:53;25.70;46.20
40960;DHT22;27842;52.272;8.052;2022-09-02T15:34:22;25.60;46.60
40960;DHT22;27842;52.272;8.052;2022-09-02T15:36:48;25.60;46.40
40960;DHT22;27842;52.272;8.052;2022-09-02T15:39:14;25.50;46.50
40960;DHT22;27842;52.272;8.052;2022-09-02T15:41:42;25.40;46.80
40960;DHT22;27842;52.272;8.052;2022-09-02T15:44:08;25.40;46.60
40960;DHT22;27842;52.272;8.052;2022-09-02T15:46:35;25.30;46.90
40960;DHT22;27842;52.272;8.052;2022-09-02T15:49:06;25.30;46.70
40960;DHT22;27842;52.272;8.052;2022-09-02T15:51:33;25.20;46.60
40960;DHT22;27842;52.272;8.052;2022-09-02T15:54:01;25.20;46.70
40960;DHT22;27842;52.272;8.052;2022-09-02T15:56:28;25.10;47.20
40960;DHT22;27842;52.272;8.052;2022-09-02T15:59:05;25.10;47.30
40960;DHT22;27842;52.272;8.052;2022-09-02T16:01:36;25.00;47.40
40960;DHT22;27842;52.272;8.052;2022-09-02T16:04:03;25.00;47.30
40960;DHT22;27842;52.272;8.052;2022-09-02T16:06:31;24.90;47.30
40960;DHT22;27842;52.272;8.052;2022-09-02T16:08:57;24.90;47.30
40960;DHT22;27842;52.272;8.052;2022-09-02T16:11:24;24.90;47.50
40960;DHT22;27842;52.272;8.052;2022-09-02T16:13:50;24.90;47.20
40960;DHT22;27842;52.272;8.052;2022-09-02T16:16:16;24.80;47.30
40960;DHT22;27842;52.272;8.052;2022-09-02T16:18:43;24.70;47.50
40960;DHT22;27842;52.272;8.052;2022-09-02T16:21:11;24.70;47.70
40960;DHT22;27842;52.272;8.052;2022-09-02T16:23:37;24.70;47.60
40960;DHT22;27842;52.272;8.052;2022-09-02T16:26:11;24.70;47.80
40960;DHT22;27842;52.272;8.052;2022-09-02T16:28:41;24.70;47.80
40960;DHT22;27842;52.272;8.052;2022-09-02T16:31:08;24.60;47.80
40960;DHT22;27842;52.272;8.052;2022-09-02T16:33:35;24.60;48.00
40960;DHT22;27842;52.272;8.052;2022-09-02T16:36:02;24.60;48.20
40960;DHT22;27842;52.272;8.052;2022-09-02T16:38:28;24.50;48.20
40960;DHT22;27842;52.272;8.052;2022-09-02T16:40:55;24.50;48.20
40960;DHT22;27842;52.272;8.052;2022-09-02T16:43:22;24.50;48.30
40960;DHT22;27842;52.272;8.052;2022-09-02T16:45:49;24.40;48.50
40960;DHT22;27842;52.272;8.052;2022-09-02T16:48:19;24.40;48.50
40960;DHT22;27842;52.272;8.052;2022-09-02T16:50:46;24.40;48.50
40960;DHT22;27842;52.272;8.052;2022-09-02T16:53:12;24.40;48.70
40960;DHT22;27842;52.272;8.052;2022-09-02T16:55:44;24.40;48.70
40960;DHT22;27842;52.272;8.052;2022-09-02T16:58:11;24.40;48.70
40960;DHT22;27842;52.272;8.052;2022-09-02T17:00:41;24.30;48.70
40960;DHT22;27842;52.272;8.052;2022-09-02T17:03:10;24.30;48.60
40960;DHT22;27842;52.272;8.052;2022-09-02T17:05:37;24.30;48.40
40960;DHT22;27842;52.272;8.052;2022-09-02T17:08:03;24.30;48.70
40960;DHT22;27842;52.272;8.052;2022-09-02T17:10:29;24.30;48.70
40960;DHT22;27842;52.272;8.052;2022-09-02T17:12:55;24.30;48.50
40960;DHT22;27842;52.272;8.052;2022-09-02T17:15:22;24.30;48.50
40960;DHT22;27842;52.272;8.052;2022-09-02T17:17:47;24.30;48.40
40960;DHT22;27842;52.272;8.052;2022-09-02T17:20:13;24.20;48.50
40960;DHT22;27842;52.272;8.052;2022-09-02T17:22:39;24.20;48.50
40960;DHT22;27842;52.272;8.052;2022-09-02T17:25:06;24.20;48.50
40960;DHT22;27842;52.272;8.052;2022-09-02T17:27:32;24.20;48.60